Details From UBBB - Heydar Aliyev
To UBBG - Ganja
Flight Number -
Tags Generated
Created
Modified
Stats Distance 171 nm / 316 km
Max Altitude 0 ft / 0 m
Waypoints 2
Social Downloads 0
Likes 0
Share VATSIM

Download

Looking for another format? Having issues loading an existing format? Contact us
Advertisement - Login to hide

Notes

Generated

Route

UBBB UBBG

ID Type Via Altitude Latitude Longitude Leg Dist Tot Dist Heading (true) Name
O UBBB APT - 0 ft / 0 m 40.48000˚ 50.03500˚ - 0 nm - -
O UBBG APT - 0 ft / 0 m 40.74464˚ 46.30592˚ 170 nm 170 nm 277° / 274° -

Altitude Profile

Advertisement - Login to hide

Weather


0- 5 10 15 20 25 30 35+ Temperature / ° C

Clouds and Precipitation
Forecast for 2018-05-21 12:00 UTC. Updated 18 minutes ago

Ground ~20,000 ft ~40,000 ft Winds

UBBB

Details ICAO UBBB (GYD)
Name HEYDAR ALIYEV
Region Azerbiajan
Timezone Asia/Baku (UTC+4.0)
Stats Elevation 10 ft / 3 m (AMSL)
Location 40.470000° 50.052083°
Runways 2
Magnetic Variation 6.264° E

METAR

UBBB 211130Z 16010KT CAVOK 32/04 Q1013 R88/D NOSIG

Decode

TAF

TAF UBBB 210510Z 2106/2206 18008KT CAVOK TX30/2110Z TN15/2202Z TEMPO 2107/2116 14010KT FEW050 BKN070 BECMG 2122/2124 VRB04KT 3000 BR SCT003 TEMPO 2200/2206 34006KT

Decode

Departure Runways

ID Width Length Bearing (true) Bearing (mag) Surface Threshold Offset Overrun Length
16 197 ft / 60 m 9,110 ft / 2,777 m 159.17° 152.91° Asphalt 0 ft / 0 m 1,312 ft / 400 m
18 167 ft / 51 m 10,947 ft / 3,337 m 180.00° 173.74° Concrete 0 ft / 0 m 1,312 ft / 400 m
34 197 ft / 60 m 9,110 ft / 2,777 m 339.18° 332.92° Asphalt 0 ft / 0 m 656 ft / 200 m
36 167 ft / 51 m 10,947 ft / 3,337 m 0.00° 353.74° Concrete 444 ft / 135 m 541 ft / 165 m

UBBG

Details ICAO UBBG (KVD)
Name GANJA
Region Azerbiajan
Timezone Asia/Baku (UTC+4.0)
Stats Elevation 1,083 ft / 330 m (AMSL)
Location 40.737676° 46.317582°
Runways 1
Magnetic Variation 6.404° E

METAR

UBBG 211130Z 05004KT 9999 BKN100 26/12 Q1014 R30/CLRD// NOSIG

Decode

TAF

Not found

Destination Runways

ID Width Length Bearing (true) Bearing (mag) Surface Threshold Offset Overrun Length
12 144 ft / 44 m 8,211 ft / 2,503 m 128.25° 121.85° Concrete 0 ft / 0 m 0 ft / 0 m
30 144 ft / 44 m 8,211 ft / 2,503 m 308.26° 301.86° Concrete 0 ft / 0 m 1,630 ft / 497 m

Popular Alternatives